KSLG

Smith Field Airport

Siloam Springs, Arkansas, USA
METAR KSLG 231156Z AUTO 08004KT 10SM CLR 07/06 A3026 RMK AO2 SLP247 7//// T00670061 10083 20056 51007
Observed Flight Rules
Oct-23 @ 11:56 UTC (26 minutes ago) Visual Flight Rules
Wind Visibility Clouds
80° at 4 knots 10 miles
  • Clear skies
Temperatures Readings
Current 7°C / 45°F
Dewpoint 6°C / 43°F
Humidity 93%
Altimeter 30.26" Hg
Pressure 1024.7 hPa
Elevation 300
METAR KSLG 231156Z AUTO 08004KT 10SM CLR 07/06 A3026 RMK AO2 SLP247 7//// T00670061 10083 20056 51007
Observed Flight Rules
Oct-23 @ 11:56 UTC
(26 minutes ago)
VFR
Wind Visibility
80° at 4 knots 10 miles
Clouds
  • Clear skies
Temperature Dewpoint
7°C / 45°F 6°C / 43°F
Humidity Altimeter Pressure
93% 30.26" Hg 1024.7 hPa